Time;durP1;ratioP1;P1;durP2;ratioP2;P2;SDS_P1;SDS_P2;PMS_P1;PMS_P2;Temp;Humidity;BMP_temperature;BMP_pressure;BME280_temperature;BME280_humidity;BME280_pressure;Samples;Min_cycle;Max_cycle;Signal;HPM_P1;HPM_P2
2022/08/02 00:01:00;;;;;;;;;;;;;;;;;;2208197;67;1287;-54
2022/08/02 00:03:33;;;;;;;;;;;;;;;;;;2208054;59;1575;-54
2022/08/02 00:06:09;;;;;;;;;;;;;;;;;;2204040;59;1006;-54
2022/08/02 00:08:42;;;;;;;;;;;;;;;;;;2208430;67;1255;-55
2022/08/02 00:11:16;;;;;;;;;;;;;;;;;;2208077;59;1358;-54
2022/08/02 00:13:49;;;;;;;;;;;;;;;;;;2208187;67;2032;-54
2022/08/02 00:16:22;;;;;;;;;;;;;;;;;;2208228;59;2059;-58
2022/08/02 00:18:55;;;;;;;;;;;;;;;;;;2208410;67;1229;-54
2022/08/02 00:21:31;;;;;;;;;;;;;;;;;;2208806;67;1155;-54
2022/08/02 00:24:04;;;;;;;;;;;;;;;;;;2208338;67;1760;-54
2022/08/02 00:26:38;;;;;;;;;;;;;;;;;;2208703;67;1192;-54
2022/08/02 00:29:11;;;;;;;;;;;;;;;;;;2208234;67;1219;-55
2022/08/02 00:31:44;;;;;;;;;;;;;;;;;;2208473;67;1251;-54
2022/08/02 00:34:17;;;;;;;;;;;;;;;;;;2208732;67;1991;-54
2022/08/02 00:36:53;;;;;;;;;;;;;;;;;;2208091;67;1442;-55
2022/08/02 00:39:26;;;;;;;;;;;;;;;;;;2208024;59;1738;-54
2022/08/02 00:41:59;;;;;;;;;;;;;;;;;;2208006;59;1247;-55
2022/08/02 00:44:32;;;;;;;;;;;;;;;;;;2207903;67;1188;-55
2022/08/02 00:47:06;;;;;;;;;;;;;;;;;;2204698;67;1239;-54
2022/08/02 00:49:39;;;;;;;;;;;;;;;;;;2209017;67;1200;-54
2022/08/02 00:52:15;;;;;;;;;;;;;;;;;;2208465;67;1097;-54
2022/08/02 00:54:48;;;;;;;;;;;;;;;;;;2208311;67;1927;-54
2022/08/02 00:57:21;;;;;;;;;;;;;;;;;;2208442;67;1177;-54
2022/08/02 00:59:55;;;;;;;;;;;;;;;;;;2208494;67;1287;-54
2022/08/02 01:02:28;;;;;;;;;;;;;;;;;;2208277;67;1420;-54
2022/08/02 01:05:01;;;;;;;;;;;;;;;;;;2207951;59;1280;-54
2022/08/02 01:07:43;;;;;;;;;;;;;;;;;;2204260;67;1272;-54
2022/08/02 01:10:16;;;;;;;;;;;;;;;;;;2207360;67;1206;-54
2022/08/02 01:12:49;;;;;;;;;;;;;;;;;;2207165;59;2566;-54
2022/08/02 01:15:23;;;;;;;;;;;;;;;;;;2207420;59;1999;-54
2022/08/02 01:17:59;;;;;;;;;;;;;;;;;;2207730;67;1305;-56
2022/08/02 01:20:46;;;;;;;;;;;;;;;;;;2207812;67;1200;-54
2022/08/02 01:23:33;;;;;;;;;;;;;;;;;;2207617;67;1059;-54
2022/08/02 01:26:13;;;;;;;;;;;;;;;;;;2208700;67;1379;-55
2022/08/02 01:28:52;;;;;;;;;;;;;;;;;;2208538;67;1179;-54
2022/08/02 01:31:28;;;;;;;;;;;;;;;;;;2207476;67;1207;-53
2022/08/02 01:34:06;;;;;;;;;;;;;;;;;;2207749;67;1239;-54
2022/08/02 01:36:40;;;;;;;;;;;;;;;;;;2207924;67;1946;-52
2022/08/02 01:39:15;;;;;;;;;;;;;;;;;;2207376;59;1631;-53
2022/08/02 01:41:50;;;;;;;;;;;;;;;;;;2207543;67;1105;-59
2022/08/02 01:44:27;;;;;;;;;;;;;;;;;;2208240;67;1283;-54
2022/08/02 01:47:03;;;;;;;;;;;;;;;;;;2207634;67;1107;-54
2022/08/02 01:49:37;;;;;;;;;;;;;;;;;;2208039;67;1200;-54
2022/08/02 01:52:26;;;;;;;;;;;;;;;;;;2206731;67;1189;-54
2022/08/02 01:55:01;;;;;;;;;;;;;;;;;;2207843;67;1935;-54
2022/08/02 01:57:36;;;;;;;;;;;;;;;;;;2207467;67;1197;-57
2022/08/02 02:00:13;;;;;;;;;;;;;;;;;;2211231;67;1202;-54
2022/08/02 02:02:48;;;;;;;;;;;;;;;;;;2211861;59;1284;-54
2022/08/02 02:05:21;;;;;;;;;;;;;;;;;;2210120;59;1212;-54
2022/08/02 02:07:57;;;;;;;;;;;;;;;;;;2208238;67;1226;-54
2022/08/02 02:10:31;;;;;;;;;;;;;;;;;;2207678;67;1144;-54
2022/08/02 02:13:05;;;;;;;;;;;;;;;;;;2207655;67;1204;-54
2022/08/02 02:15:43;;;;;;;;;;;;;;;;;;2207609;59;1968;-54
2022/08/02 02:18:27;;;;;;;;;;;;;;;;;;2207123;67;1216;-54
2022/08/02 02:21:00;;;;;;;;;;;;;;;;;;2207497;67;1206;-53
2022/08/02 02:23:33;;;;;;;;;;;;;;;;;;2208020;67;1240;-54
2022/08/02 02:26:07;;;;;;;;;;;;;;;;;;2207537;67;1193;-54
2022/08/02 02:28:41;;;;;;;;;;;;;;;;;;2207815;67;1198;-55
2022/08/02 02:31:18;;;;;;;;;;;;;;;;;;2207494;67;1279;-53
2022/08/02 02:33:52;;;;;;;;;;;;;;;;;;2207236;67;1218;-54
2022/08/02 02:36:26;;;;;;;;;;;;;;;;;;2207018;59;1893;-56
2022/08/02 02:39:01;;;;;;;;;;;;;;;;;;2206738;59;1628;-54
2022/08/02 02:41:34;;;;;;;;;;;;;;;;;;2206639;67;1126;-54
2022/08/02 02:44:11;;;;;;;;;;;;;;;;;;2207195;67;1251;-54
2022/08/02 02:46:48;;;;;;;;;;;;;;;;;;2207064;67;1109;-53
2022/08/02 02:49:21;;;;;;;;;;;;;;;;;;2207253;67;1037;-54
2022/08/02 02:51:55;;;;;;;;;;;;;;;;;;2207320;67;1155;-54
2022/08/02 02:54:29;;;;;;;;;;;;;;;;;;2208648;67;1198;-54
2022/08/02 02:57:02;;;;;;;;;;;;;;;;;;2208170;67;1957;-53
2022/08/02 02:59:36;;;;;;;;;;;;;;;;;;2208401;67;1094;-53
2022/08/02 03:02:12;;;;;;;;;;;;;;;;;;2207876;67;1292;-54
2022/08/02 03:04:46;;;;;;;;;;;;;;;;;;2209208;59;2185;-54
2022/08/02 03:07:19;;;;;;;;;;;;;;;;;;2208312;59;1224;-54
2022/08/02 03:09:52;;;;;;;;;;;;;;;;;;2208324;67;1668;-54
2022/08/02 03:12:26;;;;;;;;;;;;;;;;;;2208339;59;1426;-55
2022/08/02 03:15:02;;;;;;;;;;;;;;;;;;2208345;59;1972;-53
2022/08/02 03:17:42;;;;;;;;;;;;;;;;;;2207148;67;1102;-53
2022/08/02 03:20:16;;;;;;;;;;;;;;;;;;2208138;59;1892;-53
2022/08/02 03:22:50;;;;;;;;;;;;;;;;;;2207703;67;1280;-53
2022/08/02 03:25:23;;;;;;;;;;;;;;;;;;2207668;67;1256;-53
2022/08/02 03:27:56;;;;;;;;;;;;;;;;;;2207775;67;1200;-53
2022/08/02 03:30:29;;;;;;;;;;;;;;;;;;2207660;67;1126;-54
2022/08/02 03:33:05;;;;;;;;;;;;;;;;;;2206960;67;1097;-53
2022/08/02 03:35:38;;;;;;;;;;;;;;;;;;2207202;59;1931;-53
2022/08/02 03:38:14;;;;;;;;;;;;;;;;;;2205980;59;1560;-53
2022/08/02 03:40:48;;;;;;;;;;;;;;;;;;2206957;67;1190;-54
2022/08/02 03:43:22;;;;;;;;;;;;;;;;;;2206893;67;1149;-54
2022/08/02 03:45:55;;;;;;;;;;;;;;;;;;2207168;67;1343;-53
2022/08/02 03:48:32;;;;;;;;;;;;;;;;;;2206446;67;1210;-53
2022/08/02 03:51:06;;;;;;;;;;;;;;;;;;2206712;67;1193;-53
2022/08/02 03:53:40;;;;;;;;;;;;;;;;;;2206698;67;1214;-54
2022/08/02 03:56:13;;;;;;;;;;;;;;;;;;2206831;67;1941;-53
2022/08/02 03:58:47;;;;;;;;;;;;;;;;;;2207028;67;1092;-54
2022/08/02 04:01:20;;;;;;;;;;;;;;;;;;2206404;67;1186;-54
2022/08/02 04:03:56;;;;;;;;;;;;;;;;;;2206147;59;1293;-53
2022/08/02 04:06:29;;;;;;;;;;;;;;;;;;2207980;67;1195;-53
2022/08/02 04:09:03;;;;;;;;;;;;;;;;;;2207852;67;1226;-53
2022/08/02 04:11:36;;;;;;;;;;;;;;;;;;2207821;59;1340;-54
2022/08/02 04:14:11;;;;;;;;;;;;;;;;;;2208128;59;1279;-54
2022/08/02 04:16:46;;;;;;;;;;;;;;;;;;2208081;59;1952;-53
2022/08/02 04:19:28;;;;;;;;;;;;;;;;;;2208199;67;1337;-54
2022/08/02 04:22:03;;;;;;;;;;;;;;;;;;2207120;67;1209;-54
2022/08/02 04:24:40;;;;;;;;;;;;;;;;;;2208168;67;1195;-54
2022/08/02 04:27:13;;;;;;;;;;;;;;;;;;2207869;67;1026;-54
2022/08/02 04:29:47;;;;;;;;;;;;;;;;;;2209032;67;1112;-53
2022/08/02 04:32:20;;;;;;;;;;;;;;;;;;2208728;67;1086;-53
2022/08/02 04:34:57;;;;;;;;;;;;;;;;;;2208839;59;1223;-53
2022/08/02 04:37:30;;;;;;;;;;;;;;;;;;2209163;59;1979;-54
2022/08/02 04:40:03;;;;;;;;;;;;;;;;;;2208393;67;1203;-53
2022/08/02 04:42:36;;;;;;;;;;;;;;;;;;2210154;67;1192;-54
2022/08/02 04:45:10;;;;;;;;;;;;;;;;;;2211636;67;1207;-54
2022/08/02 04:47:44;;;;;;;;;;;;;;;;;;2212305;59;1728;-54
2022/08/02 04:50:20;;;;;;;;;;;;;;;;;;2208791;67;1145;-54
2022/08/02 04:52:53;;;;;;;;;;;;;;;;;;2208735;67;1226;-54
2022/08/02 04:55:27;;;;;;;;;;;;;;;;;;2208412;67;1233;-53
2022/08/02 04:58:00;;;;;;;;;;;;;;;;;;2208458;67;1931;-53
2022/08/02 05:00:34;;;;;;;;;;;;;;;;;;2208104;67;1103;-53
2022/08/02 05:03:07;;;;;;;;;;;;;;;;;;2207597;59;1631;-53
2022/08/02 05:05:43;;;;;;;;;;;;;;;;;;2208661;59;1230;-53
2022/08/02 05:08:16;;;;;;;;;;;;;;;;;;2207990;67;1097;-53
2022/08/02 05:10:49;;;;;;;;;;;;;;;;;;2207926;59;1419;-54
2022/08/02 05:13:22;;;;;;;;;;;;;;;;;;2208034;67;1141;-54
2022/08/02 05:15:57;;;;;;;;;;;;;;;;;;2208418;59;2056;-54
2022/08/02 05:18:30;;;;;;;;;;;;;;;;;;2208512;67;1217;-53
2022/08/02 05:21:06;;;;;;;;;;;;;;;;;;2207854;67;1232;-54
2022/08/02 05:23:39;;;;;;;;;;;;;;;;;;2209113;67;1224;-54
2022/08/02 05:26:13;;;;;;;;;;;;;;;;;;2207865;67;1233;-53
2022/08/02 05:28:46;;;;;;;;;;;;;;;;;;2207902;67;1251;-54
2022/08/02 05:31:19;;;;;;;;;;;;;;;;;;2208268;67;1077;-54
2022/08/02 05:33:52;;;;;;;;;;;;;;;;;;2208151;67;1245;-54
2022/08/02 05:36:28;;;;;;;;;;;;;;;;;;2207910;59;1933;-53
2022/08/02 05:39:01;;;;;;;;;;;;;;;;;;2207710;67;1282;-54
2022/08/02 05:41:35;;;;;;;;;;;;;;;;;;2208185;67;1256;-53
2022/08/02 05:44:08;;;;;;;;;;;;;;;;;;2207826;67;1283;-53
2022/08/02 05:46:41;;;;;;;;;;;;;;;;;;2204383;67;1625;-54
2022/08/02 05:49:14;;;;;;;;;;;;;;;;;;2207931;67;1065;-53
2022/08/02 05:51:53;;;;;;;;;;;;;;;;;;2207469;67;1096;-53
2022/08/02 05:54:33;;;;;;;;;;;;;;;;;;2207683;67;1250;-54
2022/08/02 05:57:07;;;;;;;;;;;;;;;;;;2207582;67;1938;-54
2022/08/02 05:59:42;;;;;;;;;;;;;;;;;;2207734;67;1160;-53
2022/08/02 06:02:18;;;;;;;;;;;;;;;;;;2207678;59;1429;-53
2022/08/02 06:04:55;;;;;;;;;;;;;;;;;;2207623;59;1307;-54
2022/08/02 06:07:32;;;;;;;;;;;;;;;;;;2207763;67;1196;-54
2022/08/02 06:10:05;;;;;;;;;;;;;;;;;;2206634;67;1242;-53
2022/08/02 06:12:42;;;;;;;;;;;;;;;;;;2208050;59;1374;-53
2022/08/02 06:15:16;;;;;;;;;;;;;;;;;;2207154;59;2114;-53
2022/08/02 06:17:49;;;;;;;;;;;;;;;;;;2207639;67;1991;-53
2022/08/02 06:20:22;;;;;;;;;;;;;;;;;;2207473;67;1147;-54
2022/08/02 06:23:00;;;;;;;;;;;;;;;;;;2206884;67;1309;-53
2022/08/02 06:25:34;;;;;;;;;;;;;;;;;;2207256;67;1255;-53
2022/08/02 06:28:08;;;;;;;;;;;;;;;;;;2206964;67;1192;-55
2022/08/02 06:30:41;;;;;;;;;;;;;;;;;;2207665;67;1198;-53
2022/08/02 06:33:14;;;;;;;;;;;;;;;;;;2206534;67;1085;-54
2022/08/02 06:35:53;;;;;;;;;;;;;;;;;;2207389;67;1279;-53
2022/08/02 06:38:30;;;;;;;;;;;;;;;;;;2206184;59;1953;-56
2022/08/02 06:41:05;;;;;;;;;;;;;;;;;;2207134;67;1209;-54
2022/08/02 06:43:45;;;;;;;;;;;;;;;;;;2207672;67;1242;-54
2022/08/02 06:46:18;;;;;;;;;;;;;;;;;;2207609;59;1372;-53
2022/08/02 06:48:51;;;;;;;;;;;;;;;;;;2207325;67;1308;-54
2022/08/02 06:51:25;;;;;;;;;;;;;;;;;;2206673;67;1132;-54
2022/08/02 06:54:01;;;;;;;;;;;;;;;;;;2203626;67;1502;-54
2022/08/02 06:56:34;;;;;;;;;;;;;;;;;;2206646;67;1936;-54
2022/08/02 06:59:07;;;;;;;;;;;;;;;;;;2206499;67;1113;-54
2022/08/02 07:01:41;;;;;;;;;;;;;;;;;;2207095;59;1964;-54
2022/08/02 07:04:14;;;;;;;;;;;;;;;;;;2207094;59;1664;-54
2022/08/02 07:06:47;;;;;;;;;;;;;;;;;;2206455;67;1147;-54
2022/08/02 07:09:23;;;;;;;;;;;;;;;;;;2206795;67;1169;-54
2022/08/02 07:11:56;;;;;;;;;;;;;;;;;;2207508;59;1318;-54
2022/08/02 07:14:29;;;;;;;;;;;;;;;;;;2207164;67;1252;-54
2022/08/02 07:17:02;;;;;;;;;;;;;;;;;;2206617;67;2555;-54
2022/08/02 07:19:36;;;;;;;;;;;;;;;;;;2207124;67;1194;-54
2022/08/02 07:22:09;;;;;;;;;;;;;;;;;;2206828;67;1146;-54
2022/08/02 07:24:45;;;;;;;;;;;;;;;;;;2207200;67;1186;-55
2022/08/02 07:27:18;;;;;;;;;;;;;;;;;;2208722;67;1017;-54
2022/08/02 07:29:51;;;;;;;;;;;;;;;;;;2211131;67;1210;-54
2022/08/02 07:32:25;;;;;;;;;;;;;;;;;;2209169;67;1072;-54
2022/08/02 07:34:59;;;;;;;;;;;;;;;;;;2207877;67;1223;-57
2022/08/02 07:37:33;;;;;;;;;;;;;;;;;;2206461;67;1984;-55
2022/08/02 07:40:10;;;;;;;;;;;;;;;;;;2207539;59;1227;-55
2022/08/02 07:42:44;;;;;;;;;;;;;;;;;;2207397;67;1137;-56
2022/08/02 07:45:17;;;;;;;;;;;;;;;;;;2207439;59;1352;-54
2022/08/02 07:47:51;;;;;;;;;;;;;;;;;;2207806;67;1247;-55
2022/08/02 07:50:24;;;;;;;;;;;;;;;;;;2207179;59;1059;-56
2022/08/02 07:52:57;;;;;;;;;;;;;;;;;;2207543;67;1085;-55
2022/08/02 07:55:33;;;;;;;;;;;;;;;;;;2206424;67;1200;-60
2022/08/02 07:58:06;;;;;;;;;;;;;;;;;;2207004;67;1953;-56
2022/08/02 08:00:39;;;;;;;;;;;;;;;;;;2207703;67;1131;-56
2022/08/02 08:03:13;;;;;;;;;;;;;;;;;;2206564;59;1923;-55
2022/08/02 08:05:46;;;;;;;;;;;;;;;;;;2208367;59;1226;-55
2022/08/02 08:08:19;;;;;;;;;;;;;;;;;;2207922;59;1110;-54
2022/08/02 08:10:55;;;;;;;;;;;;;;;;;;2208342;59;1381;-55
2022/08/02 08:13:28;;;;;;;;;;;;;;;;;;2208043;67;1117;-54
2022/08/02 08:16:01;;;;;;;;;;;;;;;;;;2207928;59;2138;-55
2022/08/02 08:18:35;;;;;;;;;;;;;;;;;;2208152;67;1940;-57
2022/08/02 08:21:08;;;;;;;;;;;;;;;;;;2204024;59;1917;-55
2022/08/02 08:23:41;;;;;;;;;;;;;;;;;;2207978;67;1254;-55
2022/08/02 08:26:17;;;;;;;;;;;;;;;;;;2207441;67;1243;-55
2022/08/02 08:28:51;;;;;;;;;;;;;;;;;;2207846;67;1241;-55
2022/08/02 08:31:24;;;;;;;;;;;;;;;;;;2207792;67;1107;-59
2022/08/02 08:33:57;;;;;;;;;;;;;;;;;;2207627;67;1248;-57
2022/08/02 08:36:30;;;;;;;;;;;;;;;;;;2207491;67;1183;-55
2022/08/02 08:39:03;;;;;;;;;;;;;;;;;;2206647;59;2046;-56
2022/08/02 08:41:39;;;;;;;;;;;;;;;;;;2207701;67;1224;-55
2022/08/02 08:44:12;;;;;;;;;;;;;;;;;;2207219;67;1340;-58
2022/08/02 08:46:47;;;;;;;;;;;;;;;;;;2207703;59;1208;-54
2022/08/02 08:49:22;;;;;;;;;;;;;;;;;;2206795;59;1085;-55
2022/08/02 08:51:56;;;;;;;;;;;;;;;;;;2207646;67;1536;-54
2022/08/02 08:54:31;;;;;;;;;;;;;;;;;;2204577;67;1234;-56
2022/08/02 08:57:08;;;;;;;;;;;;;;;;;;2207523;67;1992;-56
2022/08/02 08:59:42;;;;;;;;;;;;;;;;;;2207684;67;1266;-58
2022/08/02 09:02:15;;;;;;;;;;;;;;;;;;2207094;67;1465;-54
2022/08/02 09:04:49;;;;;;;;;;;;;;;;;;2207547;59;1274;-56
2022/08/02 09:07:22;;;;;;;;;;;;;;;;;;2207119;67;1266;-55
2022/08/02 09:09:55;;;;;;;;;;;;;;;;;;2207371;67;1149;-55
2022/08/02 09:12:31;;;;;;;;;;;;;;;;;;2207450;59;1407;-55
2022/08/02 09:15:06;;;;;;;;;;;;;;;;;;2207088;59;2114;-56
2022/08/02 09:17:52;;;;;;;;;;;;;;;;;;2207341;67;1999;-56
2022/08/02 09:20:25;;;;;;;;;;;;;;;;;;2207533;67;1280;-56
2022/08/02 09:23:07;;;;;;;;;;;;;;;;;;2207210;67;1244;-55
2022/08/02 09:25:40;;;;;;;;;;;;;;;;;;2207464;67;1224;-55
2022/08/02 09:28:16;;;;;;;;;;;;;;;;;;2208138;67;1105;-56
2022/08/02 09:30:49;;;;;;;;;;;;;;;;;;2207782;67;1231;-55
2022/08/02 09:33:26;;;;;;;;;;;;;;;;;;2207441;67;1208;-54
2022/08/02 09:36:04;;;;;;;;;;;;;;;;;;2207396;67;1354;-55
2022/08/02 09:38:37;;;;;;;;;;;;;;;;;;2206158;59;1966;-54
2022/08/02 09:41:21;;;;;;;;;;;;;;;;;;2207073;67;1162;-55
2022/08/02 09:43:58;;;;;;;;;;;;;;;;;;2207239;67;1218;-55
2022/08/02 09:46:33;;;;;;;;;;;;;;;;;;2207406;67;1111;-58
2022/08/02 09:49:07;;;;;;;;;;;;;;;;;;2207313;67;1092;-55
2022/08/02 09:51:41;;;;;;;;;;;;;;;;;;2207503;67;1208;-55
2022/08/02 09:54:18;;;;;;;;;;;;;;;;;;2207829;67;1202;-57
2022/08/02 09:56:52;;;;;;;;;;;;;;;;;;2208949;67;1162;-55
2022/08/02 09:59:28;;;;;;;;;;;;;;;;;;2209031;67;1944;-55
2022/08/02 10:02:02;;;;;;;;;;;;;;;;;;2208751;59;1424;-55
2022/08/02 10:04:35;;;;;;;;;;;;;;;;;;2207772;59;1245;-55
2022/08/02 10:07:08;;;;;;;;;;;;;;;;;;2208171;67;1151;-57
2022/08/02 10:09:44;;;;;;;;;;;;;;;;;;2208335;67;1211;-56
2022/08/02 10:12:17;;;;;;;;;;;;;;;;;;2211660;59;1604;-55
2022/08/02 10:14:54;;;;;;;;;;;;;;;;;;2208772;67;1160;-55
2022/08/02 10:17:27;;;;;;;;;;;;;;;;;;2209518;60;1122;-55
2022/08/02 10:20:02;;;;;;;;;;;;;;;;;;2208641;67;1944;-55
2022/08/02 10:22:35;;;;;;;;;;;;;;;;;;2208519;67;1209;-55
2022/08/02 10:25:09;;;;;;;;;;;;;;;;;;2208544;67;1253;-57
2022/08/02 10:27:45;;;;;;;;;;;;;;;;;;2209141;67;1261;-56
2022/08/02 10:30:22;;;;;;;;;;;;;;;;;;2208676;67;1140;-56
2022/08/02 10:32:56;;;;;;;;;;;;;;;;;;2208299;67;1149;-55
2022/08/02 10:35:30;;;;;;;;;;;;;;;;;;2209087;67;1237;-55
2022/08/02 10:38:06;;;;;;;;;;;;;;;;;;2208337;59;1924;-54
2022/08/02 10:40:46;;;;;;;;;;;;;;;;;;2208535;67;1239;-56
2022/08/02 10:43:41;;;;;;;;;;;;;;;;;;2207752;59;1260;-56
2022/08/02 10:46:34;;;;;;;;;;;;;;;;;;2208258;67;1255;-58
2022/08/02 10:49:12;;;;;;;;;;;;;;;;;;2207500;67;1121;-55
2022/08/02 10:52:09;;;;;;;;;;;;;;;;;;2204480;67;1845;-55
2022/08/02 10:54:44;;;;;;;;;;;;;;;;;;2206124;67;2214;-55
2022/08/02 10:57:21;;;;;;;;;;;;;;;;;;2208207;67;1096;-55
2022/08/02 10:59:57;;;;;;;;;;;;;;;;;;2207873;67;1940;-55
2022/08/02 11:02:44;;;;;;;;;;;;;;;;;;2208814;59;1417;-57
2022/08/02 11:16:00;;;;;;;;;;;;;;;;;;2360478;53;1729;-64
2022/08/02 11:18:53;;;;;;;;;;;;;;;;;;2206835;59;2096;-65
2022/08/02 11:21:30;;;;;;;;;;;;;;;;;;2206216;59;1688;-65
2022/08/02 11:24:24;;;;;;;;;;;;;;;;;;2206897;67;1111;-66
2022/08/02 11:26:58;;;;;;;;;;;;;;;;;;2202390;59;2235;-65
2022/08/02 11:29:35;;;;;;;;;;;;;;;;;;2203703;67;1176;-64
2022/08/02 11:32:09;;;;;;;;;;;;;;;;;;2203393;67;1378;-64
2022/08/02 11:34:44;;;;;;;;;;;;;;;;;;2203891;59;1217;-65
2022/08/02 11:37:31;;;;;;;;;;;;;;;;;;2202892;59;2629;-64
2022/08/02 11:40:05;;;;;;;;;;;;;;;;;;2202714;67;1938;-65
2022/08/02 11:42:39;;;;;;;;;;;;;;;;;;2204012;59;1423;-61
2022/08/02 11:45:13;;;;;;;;;;;;;;;;;;2202958;67;1227;-65
2022/08/02 11:47:47;;;;;;;;;;;;;;;;;;2202953;67;1216;-65
2022/08/02 11:50:23;;;;;;;;;;;;;;;;;;2203129;67;1153;-62
2022/08/02 11:52:59;;;;;;;;;;;;;;;;;;2203571;59;1235;-65
2022/08/02 11:55:33;;;;;;;;;;;;;;;;;;2202947;67;1286;-63
2022/08/02 11:58:08;;;;;;;;;;;;;;;;;;2203068;67;1552;-64
2022/08/02 12:00:45;;;;;;;;;;;;;;;;;;2203280;67;1204;-64
2022/08/02 12:03:18;;;;;;;;;;;;;;;;;;2203045;59;1290;-65
2022/08/02 12:05:52;;;;;;;;;;;;;;;;;;2202963;67;1215;-66
2022/08/02 12:08:29;;;;;;;;;;;;;;;;;;2203125;67;1113;-61
2022/08/02 12:11:04;;;;;;;;;;;;;;;;;;2202645;67;1423;-64
2022/08/02 12:13:43;;;;;;;;;;;;;;;;;;2203101;67;1193;-64
2022/08/02 12:19:22;;;;;;;;;;;;;;;;;;2202937;67;1980;-64
2022/08/02 12:22:08;;;;;;;;;;;;;;;;;;2203059;67;1212;-65
2022/08/02 12:24:45;;;;;;;;;;;;;;;;;;2202970;67;1261;-64
2022/08/02 12:27:35;;;;;;;;;;;;;;;;;;2203049;67;1269;-64
2022/08/02 12:30:09;;;;;;;;;;;;;;;;;;2202098;67;1093;-63
2022/08/02 12:32:43;;;;;;;;;;;;;;;;;;2203119;67;1198;-64
2022/08/02 12:35:18;;;;;;;;;;;;;;;;;;2202391;67;1118;-64
2022/08/02 12:37:51;;;;;;;;;;;;;;;;;;2201384;59;1781;-64
2022/08/02 12:40:31;;;;;;;;;;;;;;;;;;2202255;67;1936;-64
2022/08/02 12:43:05;;;;;;;;;;;;;;;;;;2202458;59;1459;-64
2022/08/02 12:45:47;;;;;;;;;;;;;;;;;;2202751;67;1253;-63
2022/08/02 12:48:33;;;;;;;;;;;;;;;;;;2202275;67;1196;-64
2022/08/02 12:51:25;;;;;;;;;;;;;;;;;;2202389;67;1148;-64
2022/08/02 12:54:12;;;;;;;;;;;;;;;;;;2202991;59;1304;-61
2022/08/02 12:56:49;;;;;;;;;;;;;;;;;;2203274;67;1291;-64
2022/08/02 12:59:35;;;;;;;;;;;;;;;;;;2202661;67;1929;-66
2022/08/02 13:02:10;;;;;;;;;;;;;;;;;;2202423;59;1310;-66
2022/08/02 13:04:43;;;;;;;;;;;;;;;;;;2203139;59;1262;-64
2022/08/02 13:07:17;;;;;;;;;;;;;;;;;;2202733;67;1081;-63
2022/08/02 13:09:50;;;;;;;;;;;;;;;;;;2202901;67;1240;-63
2022/08/02 13:12:26;;;;;;;;;;;;;;;;;;2202918;59;1408;-64
2022/08/02 13:14:59;;;;;;;;;;;;;;;;;;2202611;67;2257;-65
2022/08/02 13:17:32;;;;;;;;;;;;;;;;;;2202003;59;1175;-65
2022/08/02 13:20:06;;;;;;;;;;;;;;;;;;2202539;67;1995;-63
2022/08/02 13:22:40;;;;;;;;;;;;;;;;;;2203696;67;1191;-64
2022/08/02 13:25:13;;;;;;;;;;;;;;;;;;2204015;67;1209;-63
2022/08/02 13:27:49;;;;;;;;;;;;;;;;;;2203654;67;1301;-65
2022/08/02 13:30:22;;;;;;;;;;;;;;;;;;2203484;67;1091;-65
2022/08/02 13:32:55;;;;;;;;;;;;;;;;;;2204345;67;1212;-63
2022/08/02 13:35:28;;;;;;;;;;;;;;;;;;2203235;67;1276;-65
2022/08/02 13:38:03;;;;;;;;;;;;;;;;;;2202838;59;1721;-64
2022/08/02 13:41:07;;;;;;;;;;;;;;;;;;2203807;67;1933;-64
2022/08/02 13:43:32;;;;;;;;;;;;;;;;;;2203820;59;1862;-65
2022/08/02 13:46:06;;;;;;;;;;;;;;;;;;2203677;67;1226;-64
2022/08/02 13:48:39;;;;;;;;;;;;;;;;;;2203893;67;1196;-65
2022/08/02 13:51:13;;;;;;;;;;;;;;;;;;2203914;67;1101;-62
2022/08/02 13:53:46;;;;;;;;;;;;;;;;;;2203555;67;1090;-64
2022/08/02 13:56:19;;;;;;;;;;;;;;;;;;2203530;67;1235;-65
2022/08/02 13:58:57;;;;;;;;;;;;;;;;;;2203889;67;1199;-65
2022/08/02 14:01:31;;;;;;;;;;;;;;;;;;2203553;67;1219;-64
2022/08/02 14:04:05;;;;;;;;;;;;;;;;;;2203511;59;1490;-66
2022/08/02 14:06:38;;;;;;;;;;;;;;;;;;2203577;67;1300;-64
2022/08/02 14:09:11;;;;;;;;;;;;;;;;;;2203405;67;1220;-65
2022/08/02 14:11:44;;;;;;;;;;;;;;;;;;2203248;59;1280;-65
2022/08/02 14:14:20;;;;;;;;;;;;;;;;;;2203403;67;1106;-63
2022/08/02 14:16:54;;;;;;;;;;;;;;;;;;2203403;59;2111;-63
2022/08/02 14:19:27;;;;;;;;;;;;;;;;;;2202779;67;1981;-62
2022/08/02 14:22:00;;;;;;;;;;;;;;;;;;2203289;60;1240;-64
2022/08/02 14:24:33;;;;;;;;;;;;;;;;;;2203312;67;1262;-64
2022/08/02 14:27:06;;;;;;;;;;;;;;;;;;2203356;67;1105;-64
2022/08/02 14:29:42;;;;;;;;;;;;;;;;;;2203139;67;1259;-64
2022/08/02 14:32:15;;;;;;;;;;;;;;;;;;2202933;67;1149;-64
2022/08/02 14:34:49;;;;;;;;;;;;;;;;;;2202828;67;1219;-65
2022/08/02 14:37:22;;;;;;;;;;;;;;;;;;2202345;59;1619;-64
2022/08/02 14:39:55;;;;;;;;;;;;;;;;;;2202476;67;1991;-64
2022/08/02 14:42:28;;;;;;;;;;;;;;;;;;2202904;59;1296;-63
2022/08/02 14:45:04;;;;;;;;;;;;;;;;;;2202956;59;1172;-63
2022/08/02 14:47:38;;;;;;;;;;;;;;;;;;2198882;67;1551;-61
2022/08/02 14:50:13;;;;;;;;;;;;;;;;;;2203009;67;1607;-63
2022/08/02 14:52:46;;;;;;;;;;;;;;;;;;2202944;59;1090;-64
2022/08/02 14:55:19;;;;;;;;;;;;;;;;;;2202815;67;1222;-64
2022/08/02 14:57:52;;;;;;;;;;;;;;;;;;2202835;67;1182;-63
2022/08/02 15:00:28;;;;;;;;;;;;;;;;;;2202873;67;1933;-64
2022/08/02 15:03:01;;;;;;;;;;;;;;;;;;2202997;59;1454;-64
2022/08/02 15:05:35;;;;;;;;;;;;;;;;;;2202822;67;1244;-66
2022/08/02 15:08:08;;;;;;;;;;;;;;;;;;2202952;67;1162;-65
2022/08/02 15:10:41;;;;;;;;;;;;;;;;;;2202708;59;1447;-65
2022/08/02 15:13:14;;;;;;;;;;;;;;;;;;2202651;67;1079;-65
2022/08/02 15:15:50;;;;;;;;;;;;;;;;;;2202633;59;2062;-63
2022/08/02 15:18:23;;;;;;;;;;;;;;;;;;2202623;67;1150;-65
2022/08/02 15:20:57;;;;;;;;;;;;;;;;;;2201885;67;1931;-65
2022/08/02 15:23:30;;;;;;;;;;;;;;;;;;2202755;67;1215;-65
2022/08/02 15:26:03;;;;;;;;;;;;;;;;;;2202212;67;1200;-64
2022/08/02 15:28:37;;;;;;;;;;;;;;;;;;2202548;67;1122;-63
2022/08/02 15:31:13;;;;;;;;;;;;;;;;;;2202239;67;1120;-64
2022/08/02 15:33:46;;;;;;;;;;;;;;;;;;2202642;67;1187;-65
2022/08/02 15:36:21;;;;;;;;;;;;;;;;;;2202378;67;1129;-65
2022/08/02 15:38:54;;;;;;;;;;;;;;;;;;2201802;59;1643;-64
2022/08/02 15:41:27;;;;;;;;;;;;;;;;;;2202511;59;1940;-65
2022/08/02 15:44:00;;;;;;;;;;;;;;;;;;2202192;67;1124;-64
2022/08/02 15:46:37;;;;;;;;;;;;;;;;;;2202761;67;1255;-64
2022/08/02 15:49:10;;;;;;;;;;;;;;;;;;2202303;67;1112;-65
2022/08/02 15:51:44;;;;;;;;;;;;;;;;;;2202673;67;1188;-66
2022/08/02 15:54:17;;;;;;;;;;;;;;;;;;2202341;67;1135;-65
2022/08/02 15:56:50;;;;;;;;;;;;;;;;;;2202289;67;1193;-65
2022/08/02 15:59:23;;;;;;;;;;;;;;;;;;2202302;67;1082;-64
2022/08/02 16:01:59;;;;;;;;;;;;;;;;;;2203174;59;1936;-65
2022/08/02 16:04:32;;;;;;;;;;;;;;;;;;2202516;60;1270;-64
2022/08/02 16:07:06;;;;;;;;;;;;;;;;;;2203282;67;1169;-63
2022/08/02 16:09:39;;;;;;;;;;;;;;;;;;2204088;67;1209;-65
2022/08/02 16:12:12;;;;;;;;;;;;;;;;;;2203903;59;1388;-65
2022/08/02 16:14:45;;;;;;;;;;;;;;;;;;2202861;67;1270;-65
2022/08/02 16:17:21;;;;;;;;;;;;;;;;;;2204006;59;2204;-65
2022/08/02 16:19:54;;;;;;;;;;;;;;;;;;2202723;67;1934;-66
2022/08/02 16:22:28;;;;;;;;;;;;;;;;;;2203710;67;1217;-65
2022/08/02 16:25:01;;;;;;;;;;;;;;;;;;2203882;67;1242;-64
2022/08/02 16:27:34;;;;;;;;;;;;;;;;;;2204933;67;1256;-65
2022/08/02 16:30:08;;;;;;;;;;;;;;;;;;2203977;67;1152;-65
2022/08/02 16:32:44;;;;;;;;;;;;;;;;;;2204295;67;1226;-65
2022/08/02 16:35:17;;;;;;;;;;;;;;;;;;2203871;67;1244;-65
2022/08/02 16:37:50;;;;;;;;;;;;;;;;;;2204214;59;1603;-64
2022/08/02 16:40:23;;;;;;;;;;;;;;;;;;2203947;59;1937;-63
2022/08/02 16:42:56;;;;;;;;;;;;;;;;;;2203712;59;1301;-65
2022/08/02 16:45:30;;;;;;;;;;;;;;;;;;2204838;67;1196;-65
2022/08/02 16:48:06;;;;;;;;;;;;;;;;;;2203894;59;1292;-65
2022/08/02 16:50:39;;;;;;;;;;;;;;;;;;2204964;67;1234;-65
2022/08/02 16:53:14;;;;;;;;;;;;;;;;;;2203533;67;1051;-65
2022/08/02 16:55:47;;;;;;;;;;;;;;;;;;2204380;67;1783;-64
2022/08/02 16:58:20;;;;;;;;;;;;;;;;;;2204058;67;1087;-65
2022/08/02 17:00:53;;;;;;;;;;;;;;;;;;2203282;67;1936;-65
2022/08/02 17:03:29;;;;;;;;;;;;;;;;;;2204153;59;1323;-65
2022/08/02 17:06:02;;;;;;;;;;;;;;;;;;2202931;67;1219;-65
2022/08/02 17:08:35;;;;;;;;;;;;;;;;;;2204688;67;1260;-65
2022/08/02 17:11:09;;;;;;;;;;;;;;;;;;2202591;59;1316;-65
2022/08/02 17:13:42;;;;;;;;;;;;;;;;;;2204572;67;1215;-66
2022/08/02 17:16:15;;;;;;;;;;;;;;;;;;2203353;59;1960;-65
2022/08/02 17:18:51;;;;;;;;;;;;;;;;;;2204111;59;1308;-65
2022/08/02 17:21:25;;;;;;;;;;;;;;;;;;2203716;67;1928;-65
2022/08/02 17:23:58;;;;;;;;;;;;;;;;;;2203900;67;1155;-65
2022/08/02 17:26:31;;;;;;;;;;;;;;;;;;2203674;67;1261;-65
2022/08/02 17:29:04;;;;;;;;;;;;;;;;;;2203487;67;1056;-65
2022/08/02 17:31:37;;;;;;;;;;;;;;;;;;2208678;67;1335;-65
2022/08/02 17:34:13;;;;;;;;;;;;;;;;;;2209518;67;1130;-65
2022/08/02 17:36:46;;;;;;;;;;;;;;;;;;2211245;67;1346;-65
2022/08/02 17:39:19;;;;;;;;;;;;;;;;;;2211918;59;1508;-65
2022/08/02 17:41:52;;;;;;;;;;;;;;;;;;2212032;59;1989;-64
2022/08/02 17:44:26;;;;;;;;;;;;;;;;;;2204263;67;1195;-63
2022/08/02 17:46:59;;;;;;;;;;;;;;;;;;2203363;67;1193;-65
2022/08/02 17:49:35;;;;;;;;;;;;;;;;;;2203545;67;1185;-63
2022/08/02 17:52:08;;;;;;;;;;;;;;;;;;2202985;67;1072;-63
2022/08/02 17:54:41;;;;;;;;;;;;;;;;;;2203814;67;1255;-64
2022/08/02 17:57:14;;;;;;;;;;;;;;;;;;2203481;67;1164;-63
2022/08/02 17:59:57;;;;;;;;;;;;;;;;;;2203756;67;1264;-63
2022/08/02 18:02:30;;;;;;;;;;;;;;;;;;2203659;59;1937;-64
2022/08/02 18:05:06;;;;;;;;;;;;;;;;;;2202982;59;1217;-64
2022/08/02 18:07:39;;;;;;;;;;;;;;;;;;2203414;67;1150;-64
2022/08/02 18:10:13;;;;;;;;;;;;;;;;;;2202587;67;1081;-64